createdAt,value
2019-02-26T00:00:14.805Z,1
2019-02-26T00:01:16.419Z,1
2019-02-26T00:02:14.873Z,1
2019-02-26T00:03:14.083Z,1
2019-02-26T00:04:14.071Z,1
2019-02-26T00:05:17.319Z,1
2019-02-26T00:06:16.104Z,1
2019-02-26T00:07:16.255Z,1
2019-02-26T00:08:14.595Z,1
2019-02-26T00:09:18.106Z,1
2019-02-26T00:10:14.011Z,1
2019-02-26T00:11:13.996Z,1
2019-02-26T00:12:13.989Z,1
2019-02-26T00:13:13.980Z,1
2019-02-26T00:14:17.437Z,1
2019-02-26T00:15:13.954Z,1
2019-02-26T00:16:15.784Z,1
2019-02-26T00:17:15.299Z,1
2019-02-26T00:18:16.147Z,1
2019-02-26T00:19:14.395Z,1
2019-02-26T00:20:15.828Z,1
2019-02-26T00:21:13.895Z,1
2019-02-26T00:22:15.825Z,1
2019-02-26T00:23:13.868Z,1
2019-02-26T00:24:14.600Z,1
2019-02-26T00:25:15.429Z,1
2019-02-26T00:26:17.127Z,1
2019-02-26T00:27:13.825Z,1
2019-02-26T00:28:15.862Z,1
2019-02-26T00:29:13.807Z,1
2019-02-26T00:30:16.278Z,1
2019-02-26T00:31:13.783Z,1
2019-02-26T00:32:14.375Z,1
2019-02-26T00:33:13.761Z,1
2019-02-26T00:34:16.029Z,1
2019-02-26T00:35:13.737Z,1
2019-02-26T00:36:15.373Z,1
2019-02-26T00:37:13.715Z,1
2019-02-26T00:38:15.570Z,1
2019-02-26T00:39:13.695Z,1
2019-02-26T00:40:14.514Z,1
2019-02-26T00:41:13.675Z,1
2019-02-26T00:42:13.663Z,1
2019-02-26T00:43:13.652Z,1
2019-02-26T00:44:13.640Z,1
2019-02-26T00:45:13.631Z,1
2019-02-26T00:46:13.622Z,1
2019-02-26T00:47:13.613Z,1
2019-02-26T00:48:13.598Z,1
2019-02-26T00:49:13.587Z,1
2019-02-26T00:50:14.216Z,1
2019-02-26T00:51:13.563Z,1
2019-02-26T00:52:15.555Z,1
2019-02-26T00:53:17.119Z,1
2019-02-26T00:54:13.534Z,1
2019-02-26T00:55:13.524Z,1
2019-02-26T00:56:13.513Z,1
2019-02-26T00:57:13.981Z,1
2019-02-26T00:58:13.488Z,1
2019-02-26T00:59:13.479Z,1
2019-02-26T01:00:13.869Z,1
2019-02-26T01:01:15.263Z,1
2019-02-26T01:02:13.448Z,1
2019-02-26T01:03:15.258Z,1
2019-02-26T01:04:13.426Z,1
2019-02-26T01:05:15.535Z,1
2019-02-26T01:06:13.405Z,1
2019-02-26T01:07:13.392Z,1
2019-02-26T01:08:15.232Z,1
2019-02-26T01:09:13.471Z,1
2019-02-26T01:10:13.896Z,1
2019-02-26T01:11:13.350Z,1
2019-02-26T01:12:14.341Z,1
2019-02-26T01:13:13.332Z,1
2019-02-26T01:14:13.602Z,1
2019-02-26T01:15:14.068Z,1
2019-02-26T01:16:13.297Z,1
2019-02-26T01:17:14.826Z,1
2019-02-26T01:18:13.274Z,1
2019-02-26T01:19:15.176Z,1
2019-02-26T01:20:13.254Z,1
2019-02-26T01:21:13.242Z,1
2019-02-26T01:22:13.231Z,1
2019-02-26T01:23:13.221Z,1
2019-02-26T01:24:13.220Z,1
2019-02-26T01:25:15.207Z,1
2019-02-26T01:26:13.189Z,1
2019-02-26T01:27:13.181Z,1
2019-02-26T01:28:16.097Z,1
2019-02-26T01:29:16.015Z,2
2019-02-26T01:30:13.146Z,1
2019-02-26T01:31:13.132Z,2
2019-02-26T01:32:15.195Z,2
2019-02-26T01:33:13.115Z,1
2019-02-26T01:34:14.066Z,1
2019-02-26T01:35:13.093Z,1
2019-02-26T01:36:13.991Z,1
2019-02-26T01:37:13.071Z,1
2019-02-26T01:38:14.466Z,1
2019-02-26T01:39:13.891Z,1
2019-02-26T01:40:15.604Z,2
2019-02-26T01:41:13.886Z,2
2019-02-26T01:42:13.392Z,2
2019-02-26T01:43:13.015Z,22.
2019-02-26T01:44:12.994Z,24.
2019-02-26T01:45:12.986Z,24.
2019-02-26T01:46:14.639Z,27.
2019-02-26T01:47:12.963Z,28.
2019-02-26T01:48:18.035Z,30.
2019-02-26T01:49:12.952Z,29.
2019-02-26T01:50:13.530Z,22.
2019-02-26T01:51:12.924Z,25.
2019-02-26T01:52:14.977Z,24.
2019-02-26T01:53:14.459Z,30.
2019-02-26T01:54:14.568Z,30.
2019-02-26T01:55:12.881Z,29.
2019-02-26T01:56:12.867Z,29.
2019-02-26T01:57:12.856Z,31.
2019-02-26T01:58:15.896Z,36.
2019-02-26T01:59:12.835Z,36.
2019-02-26T02:00:12.823Z,38.
2019-02-26T02:01:14.352Z,35.
2019-02-26T02:02:17.315Z,33.
2019-02-26T02:03:12.792Z,38.
2019-02-26T02:04:14.873Z,35.50
2019-02-26T02:05:12.772Z,26.20
2019-02-26T02:06:14.177Z,30.29
2019-02-26T02:07:12.747Z,27.79
2019-02-26T02:08:13.270Z,31.50
2019-02-26T02:09:14.126Z,29.50
2019-02-26T02:10:12.716Z,29.20
2019-02-26T02:11:12.703Z,26.00
2019-02-26T02:12:12.695Z,25.00
2019-02-26T02:13:12.683Z,28.60
2019-02-26T02:14:13.269Z,31.89
2019-02-26T02:15:14.953Z,30.60
2019-02-26T02:16:12.652Z,32.59
2019-02-26T02:17:13.617Z,31.20
2019-02-26T02:18:12.636Z,33.59
2019-02-26T02:19:15.498Z,32.09
2019-02-26T02:20:13.083Z,33.50
2019-02-26T02:21:12.597Z,33.00
2019-02-26T02:22:14.558Z,36.20
2019-02-26T02:23:12.579Z,36.20
2019-02-26T02:24:14.722Z,30.70
2019-02-26T02:25:12.554Z,32.29
2019-02-26T02:26:13.928Z,29.60
2019-02-26T02:27:15.143Z,29.60
2019-02-26T02:28:12.525Z,31.70
2019-02-26T02:29:12.835Z,31.39
2019-02-26T02:30:18.575Z,35.79
2019-02-26T02:31:13.589Z,33.09
2019-02-26T02:32:12.479Z,30.29
2019-02-26T02:33:17.197Z,31.79
2019-02-26T02:34:13.561Z,27.20
2019-02-26T02:35:13.420Z,29.29
2019-02-26T02:36:15.099Z,38.09
2019-02-26T02:37:12.426Z,39.90
2019-02-26T02:38:12.413Z,34.20
2019-02-26T02:39:15.428Z,32.29
2019-02-26T02:40:12.395Z,32.00
2019-02-26T02:41:12.380Z,29.10
2019-02-26T02:42:14.088Z,30.89
2019-02-26T02:43:15.215Z,30.50
2019-02-26T02:44:14.743Z,30.00
2019-02-26T02:45:16.131Z,32.79
2019-02-26T02:46:12.330Z,36.59
2019-02-26T02:47:12.317Z,34.59
2019-02-26T02:48:14.188Z,34.70
2019-02-26T02:49:14.976Z,35.20
2019-02-26T02:50:14.817Z,35.29
2019-02-26T02:51:13.865Z,33.50
2019-02-26T02:52:12.277Z,34.70
2019-02-26T02:53:12.250Z,37.00
2019-02-26T02:54:15.322Z,37.70
2019-02-26T02:55:13.910Z,33.00
2019-02-26T02:56:12.928Z,31.89
2019-02-26T02:57:12.211Z,32.00
2019-02-26T02:58:13.127Z,31.60
2019-02-26T02:59:14.121Z,33.29
2019-02-26T03:00:12.274Z,35.40
2019-02-26T03:01:14.029Z,29.29
2019-02-26T03:02:14.429Z,37.09
2019-02-26T03:03:12.141Z,34.59
2019-02-26T03:04:14.709Z,34.29
2019-02-26T03:05:12.120Z,35.09
2019-02-26T03:06:12.429Z,33.50
2019-02-26T03:07:12.099Z,32.59
2019-02-26T03:08:13.965Z,32.59
2019-02-26T03:09:14.511Z,33.00
2019-02-26T03:10:12.194Z,34.79
2019-02-26T03:11:12.067Z,35.29
2019-02-26T03:12:12.046Z,36.59
2019-02-26T03:13:14.257Z,32.79
2019-02-26T03:14:13.849Z,30.70
2019-02-26T03:15:12.015Z,29.00
2019-02-26T03:16:13.428Z,29.89
2019-02-26T03:17:14.713Z,29.20
2019-02-26T03:18:14.097Z,29.89
2019-02-26T03:19:12.695Z,30.20
2019-02-26T03:20:12.032Z,27.50
2019-02-26T03:21:12.017Z,26.89
2019-02-26T03:22:12.873Z,27.10
2019-02-26T03:23:15.718Z,26.60
2019-02-26T03:24:11.917Z,26.10
2019-02-26T03:25:11.908Z,24.50
2019-02-26T03:26:14.684Z,23.00
2019-02-26T03:27:11.886Z,23.00
2019-02-26T03:28:11.878Z,21.60
2019-02-26T03:29:11.866Z,22.20
2019-02-26T03:30:20.720Z,21.60
2019-02-26T03:31:12.946Z,20.20
2019-02-26T03:32:11.836Z,21.79
2019-02-26T03:33:11.833Z,21.29
2019-02-26T03:34:15.684Z,23.79
2019-02-26T03:35:13.222Z,25.00
2019-02-26T03:36:13.892Z,26.39
2019-02-26T03:37:11.777Z,24.89
2019-02-26T03:38:11.767Z,26.29
2019-02-26T03:39:11.754Z,28.10
2019-02-26T03:40:11.810Z,27.10
2019-02-26T03:41:11.801Z,28.00
2019-02-26T03:42:14.173Z,27.00
2019-02-26T03:43:13.105Z,27.39
2019-02-26T03:44:11.765Z,28.60
2019-02-26T03:45:11.754Z,29.39
2019-02-26T03:46:11.679Z,27.79
2019-02-26T03:47:11.666Z,29.20
2019-02-26T03:48:11.654Z,29.29
2019-02-26T03:49:11.644Z,28.79
2019-02-26T03:50:11.633Z,29.70
2019-02-26T03:51:11.624Z,29.60
2019-02-26T03:52:15.311Z,27.70
2019-02-26T03:53:11.599Z,27.29
2019-02-26T03:54:11.589Z,28.79
2019-02-26T03:55:14.091Z,29.70
2019-02-26T03:56:12.566Z,30.89
2019-02-26T03:57:14.108Z,29.89
2019-02-26T03:58:11.544Z,30.39
2019-02-26T03:59:11.898Z,30.89
2019-02-26T04:00:14.115Z,30.79
2019-02-26T04:01:13.635Z,30.29
2019-02-26T04:02:12.601Z,30.29
2019-02-26T04:03:12.473Z,28.20
2019-02-26T04:04:11.477Z,23.50
2019-02-26T04:05:11.467Z,25.39
2019-02-26T04:06:12.139Z,25.70
2019-02-26T04:07:11.445Z,24.70
2019-02-26T04:08:11.432Z,23.50
2019-02-26T04:09:13.649Z,23.00
2019-02-26T04:10:11.413Z,23.39
2019-02-26T04:11:11.406Z,24.00
2019-02-26T04:12:13.580Z,23.60
2019-02-26T04:13:11.380Z,20.89
2019-02-26T04:14:12.665Z,24.29
2019-02-26T04:15:11.362Z,24.39
2019-02-26T04:16:11.351Z,25.89
2019-02-26T04:17:11.338Z,22.79
2019-02-26T04:18:11.333Z,21.70
2019-02-26T04:19:11.319Z,22.29
2019-02-26T04:20:11.300Z,22.20
2019-02-26T04:21:12.193Z,23.50
2019-02-26T04:22:13.124Z,22.50
2019-02-26T04:23:13.326Z,22.50
2019-02-26T04:24:11.459Z,22.29
2019-02-26T04:25:11.250Z,23.10
2019-02-26T04:26:11.236Z,21.79
2019-02-26T04:27:11.225Z,21.70
2019-02-26T04:28:11.336Z,21.20
2019-02-26T04:29:11.212Z,22.10
2019-02-26T04:30:13.485Z,22.39
2019-02-26T04:31:11.185Z,21.70
2019-02-26T04:32:12.148Z,21.50
2019-02-26T04:33:11.644Z,21.10
2019-02-26T04:34:11.156Z,22.20
2019-02-26T04:35:11.143Z,19.50
2019-02-26T04:36:11.887Z,19.29
2019-02-26T04:37:12.883Z,19.10
2019-02-26T04:38:11.110Z,19.60
2019-02-26T04:39:13.669Z,21.70
2019-02-26T04:40:14.001Z,22.20
2019-02-26T04:41:13.362Z,22.00
2019-02-26T04:42:12.025Z,22.50
2019-02-26T04:43:12.884Z,23.39
2019-02-26T04:44:11.043Z,23.60
2019-02-26T04:45:11.035Z,22.89
2019-02-26T04:46:13.449Z,22.89
2019-02-26T04:47:11.019Z,23.10
2019-02-26T04:48:14.743Z,23.39
2019-02-26T04:49:12.097Z,23.00
2019-02-26T04:50:10.983Z,24.50
2019-02-26T04:51:10.971Z,23.79
2019-02-26T04:52:14.193Z,23.79
2019-02-26T04:53:11.258Z,22.89
2019-02-26T04:54:10.941Z,23.20
2019-02-26T04:55:10.931Z,22.70
2019-02-26T04:56:12.847Z,23.60
2019-02-26T04:57:10.904Z,21.79
2019-02-26T04:58:12.477Z,22.89
2019-02-26T04:59:12.344Z,21.89
2019-02-26T05:00:11.007Z,20.79
2019-02-26T05:01:13.053Z,19.70
2019-02-26T05:02:10.856Z,19.60
2019-02-26T05:03:14.041Z,19.39
2019-02-26T05:04:10.832Z,20.20
2019-02-26T05:05:10.821Z,19.29
2019-02-26T05:06:10.991Z,18.79
2019-02-26T05:07:13.482Z,17.89
2019-02-26T05:08:12.836Z,18.89
2019-02-26T05:09:10.779Z,18.70
2019-02-26T05:10:10.769Z,19.50
2019-02-26T05:11:14.831Z,19.10
2019-02-26T05:12:10.743Z,19.60
2019-02-26T05:13:10.736Z,19.39
2019-02-26T05:14:11.742Z,19.00
2019-02-26T05:15:13.980Z,19.00
2019-02-26T05:16:11.815Z,18.20
2019-02-26T05:17:10.688Z,16.70
2019-02-26T05:18:10.678Z,18.00
2019-02-26T05:19:13.720Z,18.60
2019-02-26T05:20:13.488Z,19.39
2019-02-26T05:21:12.882Z,17.79
2019-02-26T05:22:10.631Z,17.60
2019-02-26T05:23:10.625Z,18.00
2019-02-26T05:24:14.558Z,18.50
2019-02-26T05:25:14.006Z,18.60
2019-02-26T05:26:11.674Z,19.10
2019-02-26T05:27:12.287Z,19.29
2019-02-26T05:28:14.030Z,20.89
2019-02-26T05:29:10.557Z,19.89
2019-02-26T05:30:13.048Z,21.50
2019-02-26T05:31:40.234Z,23.70
2019-02-26T05:32:38.756Z,23.79
2019-02-26T05:33:38.740Z,24.60
2019-02-26T05:34:39.826Z,24.29
2019-02-26T05:35:40.718Z,23.89
2019-02-26T05:36:40.277Z,23.39
2019-02-26T05:37:41.006Z,24.39
2019-02-26T05:38:38.689Z,26.60
2019-02-26T05:39:40.702Z,27.00
2019-02-26T05:40:42.246Z,35.90
2019-02-26T05:41:40.605Z,37.09
2019-02-26T05:42:38.645Z,32.50
2019-02-26T05:43:38.634Z,27.20
2019-02-26T05:44:38.623Z,31.20
2019-02-26T05:45:38.630Z,38.90
2019-02-26T05:46:38.599Z,36.70
2019-02-26T05:47:38.589Z,35.59
2019-02-26T05:48:39.957Z,37.59
2019-02-26T05:49:40.858Z,38.90
2019-02-26T05:50:40.875Z,35.59
2019-02-26T05:51:38.554Z,29.50
2019-02-26T05:52:38.532Z,27.29
2019-02-26T05:53:38.521Z,26.00
2019-02-26T05:54:38.511Z,23.89
2019-02-26T05:55:38.499Z,25.10
2019-02-26T05:56:41.298Z,22.79
2019-02-26T05:57:38.477Z,23.60
2019-02-26T05:58:39.472Z,23.50
2019-02-26T05:59:38.460Z,24.00
2019-02-26T06:00:38.743Z,23.60
2019-02-26T06:01:38.434Z,22.70
2019-02-26T06:02:40.094Z,23.20
2019-02-26T06:03:40.563Z,23.50
2019-02-26T06:04:40.795Z,22.20
2019-02-26T06:05:41.176Z,21.29
2019-02-26T06:06:38.385Z,21.79
2019-02-26T06:07:38.904Z,20.89
2019-02-26T06:08:39.323Z,16.20
2019-02-26T06:09:38.347Z,16.50
2019-02-26T06:10:38.333Z,20.00
2019-02-26T06:11:39.936Z,11.60
2019-02-26T06:12:40.877Z,12.89
2019-02-26T06:13:40.984Z,14.80
2019-02-26T06:14:39.375Z,15.39
2019-02-26T06:15:38.284Z,16.39
2019-02-26T06:16:38.273Z,15.50
2019-02-26T06:17:41.132Z,16.50
2019-02-26T06:18:41.115Z,16.79
2019-02-26T06:19:40.199Z,15.69
2019-02-26T06:20:38.230Z,16.89
2019-02-26T06:21:41.804Z,14.30
2019-02-26T06:22:38.208Z,13.10
2019-02-26T06:23:39.344Z,9.60
2019-02-26T06:24:38.183Z,6.40
2019-02-26T06:25:38.177Z,5.40
2019-02-26T06:26:40.249Z,4.30
2019-02-26T06:27:38.150Z,5.80
2019-02-26T06:28:40.400Z,5.59
2019-02-26T06:29:38.133Z,5.59
2019-02-26T06:30:38.121Z,5.00
2019-02-26T06:31:40.105Z,5.59
2019-02-26T06:32:41.480Z,4.50
2019-02-26T06:33:39.213Z,4.19
2019-02-26T06:34:38.078Z,4.00
2019-02-26T06:35:38.941Z,3.00
2019-02-26T06:36:38.057Z,6.09
2019-02-26T06:37:40.270Z,3.00
2019-02-26T06:38:38.033Z,3.29
2019-02-26T06:39:38.023Z,3.50
2019-02-26T06:40:39.278Z,4.09
2019-02-26T06:41:39.725Z,4.09
2019-02-26T06:42:38.615Z,4.69
2019-02-26T06:43:39.926Z,4.40
2019-02-26T06:44:38.927Z,5.30
2019-02-26T06:45:40.311Z,4.80
2019-02-26T06:46:38.390Z,4.69
2019-02-26T06:47:37.937Z,13.80
2019-02-26T06:48:37.927Z,10.30
2019-02-26T06:49:37.916Z,4.59
2019-02-26T06:50:38.771Z,4.90
2019-02-26T06:51:37.892Z,5.19
2019-02-26T06:52:39.959Z,5.30
2019-02-26T06:53:37.871Z,5.00
2019-02-26T06:54:37.860Z,4.90
2019-02-26T06:55:37.850Z,5.30
2019-02-26T06:56:43.290Z,5.30
2019-02-26T06:57:41.445Z,5.19
2019-02-26T06:58:38.742Z,5.69
2019-02-26T06:59:37.810Z,5.59
2019-02-26T07:00:37.797Z,5.69
2019-02-26T07:01:39.629Z,6.00
2019-02-26T07:02:37.785Z,6.40
2019-02-26T07:03:40.364Z,6.50
2019-02-26T07:04:37.751Z,7.00
2019-02-26T07:05:37.739Z,7.30
2019-02-26T07:06:38.061Z,9.00
2019-02-26T07:07:37.719Z,7.80
2019-02-26T07:08:37.707Z,7.80
2019-02-26T07:09:39.188Z,7.80
2019-02-26T07:10:37.688Z,8.80
2019-02-26T07:11:37.922Z,9.00
2019-02-26T07:12:38.760Z,8.80
2019-02-26T07:13:39.126Z,8.89
2019-02-26T07:14:37.645Z,8.50
2019-02-26T07:15:37.638Z,9.60
2019-02-26T07:16:39.830Z,9.89
2019-02-26T07:17:38.528Z,9.69
2019-02-26T07:18:37.609Z,10.19
2019-02-26T07:19:38.103Z,10.60
2019-02-26T07:20:39.619Z,10.69
2019-02-26T07:21:40.652Z,11.39
2019-02-26T07:22:39.271Z,10.60
2019-02-26T07:23:39.882Z,10.60
2019-02-26T07:24:38.563Z,10.69
2019-02-26T07:25:39.409Z,10.80
2019-02-26T07:26:38.627Z,11.00
2019-02-26T07:27:38.442Z,11.69
2019-02-26T07:28:39.189Z,10.39
2019-02-26T07:29:39.981Z,10.39
2019-02-26T07:30:39.778Z,10.80
2019-02-26T07:31:37.471Z,9.10
2019-02-26T07:32:38.247Z,9.10
2019-02-26T07:33:39.481Z,8.89
2019-02-26T07:34:37.439Z,9.80
2019-02-26T07:35:39.612Z,9.50
2019-02-26T07:36:37.418Z,10.69
2019-02-26T07:37:38.115Z,10.80
2019-02-26T07:38:41.219Z,10.50
2019-02-26T07:39:37.384Z,10.39
2019-02-26T07:40:38.587Z,10.69
2019-02-26T07:41:37.366Z,10.80
2019-02-26T07:42:39.240Z,11.19
2019-02-26T07:43:41.028Z,11.00
2019-02-26T07:44:37.334Z,11.19
2019-02-26T07:45:37.423Z,10.69
2019-02-26T07:46:38.540Z,10.19
2019-02-26T07:47:37.302Z,10.19
2019-02-26T07:48:37.294Z,10.50
2019-02-26T07:49:37.286Z,10.19
2019-02-26T07:50:40.059Z,9.10
2019-02-26T07:51:38.598Z,8.00
2019-02-26T07:52:37.253Z,7.69
2019-02-26T07:53:37.238Z,8.10
2019-02-26T07:54:37.754Z,7.69
2019-02-26T07:55:38.224Z,8.19
2019-02-26T07:56:37.210Z,8.50
2019-02-26T07:57:37.197Z,7.80
2019-02-26T07:58:38.958Z,7.30
2019-02-26T07:59:39.913Z,7.50
2019-02-26T08:00:39.759Z,7.30
2019-02-26T08:01:37.596Z,7.00
2019-02-26T08:02:37.449Z,6.90
2019-02-26T08:03:37.138Z,7.40
2019-02-26T08:04:38.969Z,7.19
2019-02-26T08:05:37.111Z,7.30
2019-02-26T08:06:38.456Z,7.19
2019-02-26T08:07:37.090Z,7.09
2019-02-26T08:08:37.863Z,6.50
2019-02-26T08:09:37.071Z,6.30
2019-02-26T08:10:39.387Z,7.80
2019-02-26T08:11:39.187Z,6.59
2019-02-26T08:12:38.148Z,6.90
2019-02-26T08:13:37.030Z,6.90
2019-02-26T08:14:37.979Z,9.19
2019-02-26T08:15:37.560Z,10.80
2019-02-26T08:16:36.996Z,9.50
2019-02-26T08:17:37.022Z,7.40
2019-02-26T08:18:36.972Z,8.10
2019-02-26T08:19:39.293Z,6.90
2019-02-26T08:20:37.710Z,6.59
2019-02-26T08:21:36.943Z,7.00
2019-02-26T08:22:36.933Z,5.80
2019-02-26T08:23:36.920Z,5.80
2019-02-26T08:24:36.911Z,6.00
2019-02-26T08:25:36.897Z,5.80
2019-02-26T08:26:38.647Z,5.59
2019-02-26T08:27:37.919Z,5.80
2019-02-26T08:28:38.867Z,6.00
2019-02-26T08:29:36.855Z,6.40
2019-02-26T08:30:40.254Z,5.90
2019-02-26T08:31:36.833Z,6.59
2019-02-26T08:32:39.070Z,6.00
2019-02-26T08:33:36.813Z,5.80
2019-02-26T08:34:39.192Z,5.59
2019-02-26T08:35:36.794Z,6.00
2019-02-26T08:36:36.781Z,5.90
2019-02-26T08:37:36.769Z,6.19
2019-02-26T08:38:36.759Z,5.90
2019-02-26T08:39:38.010Z,6.09
2019-02-26T08:40:36.737Z,6.19
2019-02-26T08:41:36.730Z,6.30
2019-02-26T08:42:36.716Z,5.90
2019-02-26T08:43:36.707Z,5.69
2019-02-26T08:44:36.697Z,6.19
2019-02-26T08:45:36.689Z,6.30
2019-02-26T08:46:37.848Z,6.00
2019-02-26T08:47:36.671Z,6.00
2019-02-26T08:48:36.660Z,6.09
2019-02-26T08:49:38.351Z,6.30
2019-02-26T08:50:38.849Z,6.69
2019-02-26T08:51:36.627Z,6.40
2019-02-26T08:52:36.618Z,6.30
2019-02-26T08:53:36.607Z,6.40
2019-02-26T08:54:36.596Z,6.19
2019-02-26T08:55:36.583Z,7.00
2019-02-26T08:56:38.634Z,6.90
2019-02-26T08:57:36.660Z,6.59
2019-02-26T08:58:36.550Z,7.19
2019-02-26T08:59:36.642Z,7.19
2019-02-26T09:00:36.535Z,7.19
2019-02-26T09:01:36.530Z,7.30
2019-02-26T09:02:36.514Z,7.00
2019-02-26T09:03:40.601Z,7.59
2019-02-26T09:04:38.356Z,7.00
2019-02-26T09:05:36.844Z,7.50
2019-02-26T09:06:36.473Z,7.19
2019-02-26T09:07:37.884Z,6.80
2019-02-26T09:08:38.559Z,7.00
2019-02-26T09:09:36.447Z,7.09
2019-02-26T09:10:38.584Z,7.40
2019-02-26T09:11:37.032Z,7.50
2019-02-26T09:12:36.408Z,10.39
2019-02-26T09:13:38.680Z,7.50
2019-02-26T09:14:37.545Z,6.80
2019-02-26T09:15:38.468Z,6.40
2019-02-26T09:16:36.368Z,6.59
2019-02-26T09:17:37.090Z,7.09
2019-02-26T09:18:39.980Z,7.09
2019-02-26T09:19:38.088Z,8.39
2019-02-26T09:20:36.326Z,15.50
2019-02-26T09:21:36.926Z,14.10
2019-02-26T09:22:36.310Z,12.89
2019-02-26T09:23:36.290Z,11.00
2019-02-26T09:24:36.699Z,9.19
2019-02-26T09:25:36.279Z,8.00
2019-02-26T09:26:36.267Z,9.50
2019-02-26T09:27:42.538Z,9.39
2019-02-26T09:28:37.341Z,7.80
2019-02-26T09:29:37.512Z,7.90
2019-02-26T09:30:38.348Z,7.69
2019-02-26T09:31:36.209Z,7.30
2019-02-26T09:32:39.286Z,6.69
2019-02-26T09:33:38.142Z,7.19
2019-02-26T09:34:37.958Z,6.80
2019-02-26T09:35:36.167Z,6.69
2019-02-26T09:38:36.235Z,7.09
2019-02-26T09:39:37.219Z,6.69
2019-02-26T09:40:36.114Z,7.09
2019-02-26T09:41:37.818Z,7.09
2019-02-26T09:42:36.098Z,6.69
2019-02-26T09:43:38.187Z,7.00
2019-02-26T09:44:36.076Z,6.69
2019-02-26T09:45:36.154Z,6.59
2019-02-26T09:46:37.178Z,6.80
2019-02-26T09:47:36.133Z,6.59
2019-02-26T09:48:38.091Z,6.80
2019-02-26T09:49:36.021Z,6.90
2019-02-26T09:50:36.809Z,7.19
2019-02-26T09:51:37.606Z,7.00
2019-02-26T09:52:35.985Z,7.30
2019-02-26T09:53:35.979Z,6.69
2019-02-26T09:54:40.284Z,7.19
2019-02-26T09:55:37.061Z,7.09
2019-02-26T09:56:35.948Z,7.19
2019-02-26T09:57:35.935Z,7.40
2019-02-26T09:58:37.496Z,7.69
2019-02-26T09:59:38.393Z,7.80
2019-02-26T10:00:36.000Z,8.10
2019-02-26T10:01:37.725Z,7.80
2019-02-26T10:02:35.880Z,8.00
2019-02-26T10:03:38.967Z,7.00
2019-02-26T10:04:35.866Z,7.50
2019-02-26T10:05:35.851Z,7.90
2019-02-26T10:06:37.956Z,7.40
2019-02-26T10:07:36.974Z,7.40
2019-02-26T10:08:35.815Z,7.59
2019-02-26T10:09:37.552Z,7.59
2019-02-26T10:10:39.079Z,7.80
2019-02-26T10:11:35.784Z,7.00
2019-02-26T10:12:37.102Z,6.59
2019-02-26T10:13:35.766Z,7.00
2019-02-26T10:14:38.318Z,7.80
2019-02-26T10:15:39.317Z,7.59
2019-02-26T10:16:35.733Z,7.59
2019-02-26T10:17:38.069Z,8.19
2019-02-26T10:18:35.718Z,7.90
2019-02-26T10:19:38.199Z,8.89
2019-02-26T10:20:35.793Z,7.50
2019-02-26T10:21:37.580Z,7.40
2019-02-26T10:22:37.994Z,7.09
2019-02-26T10:23:35.757Z,7.40
2019-02-26T10:24:39.709Z,6.50
2019-02-26T10:25:38.703Z,6.59
2019-02-26T10:26:36.592Z,7.19
2019-02-26T10:27:36.142Z,7.00
2019-02-26T10:28:39.437Z,6.90
2019-02-26T10:29:38.861Z,6.50
2019-02-26T10:30:38.715Z,6.80
2019-02-26T10:31:38.114Z,7.00
2019-02-26T10:32:35.668Z,7.69
2019-02-26T10:33:37.985Z,8.00
2019-02-26T10:34:35.644Z,6.40
2019-02-26T10:35:36.270Z,7.09
2019-02-26T10:36:40.837Z,7.09
2019-02-26T10:37:38.626Z,5.69
2019-02-26T10:38:36.510Z,6.00
2019-02-26T10:39:35.587Z,5.90
2019-02-26T10:40:49.946Z,6.40
2019-02-26T10:41:37.536Z,5.80
2019-02-26T10:42:39.802Z,6.00
2019-02-26T10:43:35.541Z,7.09
2019-02-26T10:44:35.539Z,6.00
2019-02-26T10:45:38.673Z,6.30
2019-02-26T10:46:37.578Z,6.30
2019-02-26T10:47:35.501Z,6.50
2019-02-26T10:48:35.494Z,6.69
2019-02-26T10:49:35.477Z,6.50
2019-02-26T10:50:37.263Z,6.80
2019-02-26T10:51:35.461Z,6.00
2019-02-26T10:52:35.452Z,6.00
2019-02-26T10:53:35.435Z,6.19
2019-02-26T10:54:40.137Z,5.19
2019-02-26T10:55:39.362Z,5.00
2019-02-26T10:56:39.369Z,5.30
2019-02-26T10:57:36.232Z,5.40
2019-02-26T10:58:35.483Z,5.19
2019-02-26T10:59:35.483Z,5.40
2019-02-26T11:00:37.758Z,5.40
2019-02-26T11:01:35.537Z,5.69
2019-02-26T11:02:35.352Z,5.40
2019-02-26T11:03:38.294Z,5.80
2019-02-26T11:04:38.072Z,5.69
2019-02-26T11:05:37.194Z,5.80
2019-02-26T11:06:38.296Z,5.50
2019-02-26T11:07:37.524Z,5.69
2019-02-26T11:08:35.279Z,5.50
2019-02-26T11:09:35.263Z,5.69
2019-02-26T11:10:39.355Z,6.09
2019-02-26T11:11:38.066Z,6.09
2019-02-26T11:12:35.233Z,5.69
2019-02-26T11:13:37.225Z,6.50
2019-02-26T11:14:36.329Z,5.80
2019-02-26T11:15:35.978Z,6.00
2019-02-26T11:16:35.837Z,5.90
2019-02-26T11:17:35.181Z,6.30
2019-02-26T11:18:37.118Z,5.90
2019-02-26T11:19:38.284Z,6.00
2019-02-26T11:20:35.152Z,6.19
2019-02-26T11:21:35.140Z,6.59
2019-02-26T11:22:35.125Z,5.90
2019-02-26T11:23:36.321Z,6.00
2019-02-26T11:24:36.189Z,6.30
2019-02-26T11:25:36.943Z,6.19
2019-02-26T11:26:36.018Z,5.90
2019-02-26T11:27:35.812Z,6.30
2019-02-26T11:28:38.060Z,6.30
2019-02-26T11:29:36.521Z,6.09
2019-02-26T11:30:35.042Z,6.40
2019-02-26T11:31:36.562Z,6.09
2019-02-26T11:32:37.921Z,6.80
2019-02-26T11:33:35.017Z,6.09
2019-02-26T11:34:36.266Z,5.69
2019-02-26T11:35:34.994Z,8.50
2019-02-26T11:36:36.557Z,7.30
2019-02-26T11:37:34.977Z,6.90
2019-02-26T11:38:36.938Z,6.80
2019-02-26T11:39:34.952Z,6.09
2019-02-26T11:40:34.942Z,5.80
2019-02-26T11:41:35.924Z,5.40
2019-02-26T11:42:34.925Z,5.80
2019-02-26T11:43:34.907Z,5.59
2019-02-26T11:44:34.900Z,5.80
2019-02-26T11:45:36.984Z,5.50
2019-02-26T11:46:34.877Z,5.59
2019-02-26T11:47:36.703Z,5.00
2019-02-26T11:48:34.860Z,5.40
2019-02-26T11:49:36.831Z,5.09
2019-02-26T11:50:34.836Z,5.40
2019-02-26T11:51:37.384Z,5.30
2019-02-26T11:52:36.408Z,5.30
2019-02-26T11:53:34.806Z,5.19
2019-02-26T11:54:37.127Z,5.59
2019-02-26T11:55:37.392Z,5.19
2019-02-26T11:56:34.773Z,5.00
2019-02-26T11:57:36.984Z,5.09
2019-02-26T11:58:34.753Z,5.00
2019-02-26T11:59:35.685Z,5.40
2019-02-26T12:00:37.346Z,5.30
2019-02-26T12:01:36.885Z,5.59
2019-02-26T12:02:37.074Z,5.19
2019-02-26T12:03:37.116Z,5.50
2019-02-26T12:04:34.692Z,6.30
2019-02-26T12:05:36.670Z,6.40
2019-02-26T12:06:34.671Z,7.50
2019-02-26T12:07:34.946Z,5.90
2019-02-26T12:08:34.651Z,7.69
2019-02-26T12:09:37.545Z,7.50
2019-02-26T12:10:35.890Z,8.50
2019-02-26T12:11:34.619Z,9.69
2019-02-26T12:12:36.875Z,8.89
2019-02-26T12:13:34.601Z,8.69
2019-02-26T12:14:37.004Z,8.39
2019-02-26T12:15:36.275Z,8.19
2019-02-26T12:16:34.568Z,8.00
2019-02-26T12:17:34.556Z,8.19
2019-02-26T12:18:36.738Z,8.80
2019-02-26T12:19:36.751Z,8.60
2019-02-26T12:20:35.587Z,9.50
2019-02-26T12:21:35.059Z,9.30
2019-02-26T12:22:34.434Z,8.39
2019-02-26T12:23:36.392Z,8.39
2019-02-26T12:24:36.172Z,7.69
2019-02-26T12:25:34.477Z,9.00
2019-02-26T12:26:34.462Z,8.00
2019-02-26T12:27:36.220Z,7.90
2019-02-26T12:28:37.530Z,8.89
2019-02-26T12:29:34.435Z,8.00
2019-02-26T12:30:35.028Z,6.90
2019-02-26T12:31:36.345Z,8.80
2019-02-26T12:32:34.399Z,8.89
2019-02-26T12:33:34.386Z,9.39
2019-02-26T12:34:35.129Z,10.19
2019-02-26T12:35:35.738Z,11.50
2019-02-26T12:36:35.525Z,11.19
2019-02-26T12:37:34.349Z,13.19
2019-02-26T12:38:36.685Z,10.60
2019-02-26T12:39:34.322Z,9.60
2019-02-26T12:40:37.157Z,8.80
2019-02-26T12:41:36.550Z,9.00
2019-02-26T12:42:34.288Z,8.69
2019-02-26T12:43:36.801Z,8.00
2019-02-26T12:44:37.431Z,9.30
2019-02-26T12:45:37.722Z,8.10
2019-02-26T12:46:34.248Z,8.89
2019-02-26T12:47:34.141Z,8.50
2019-02-26T12:48:36.958Z,9.10
2019-02-26T12:49:36.495Z,9.60
2019-02-26T12:50:36.663Z,10.50
2019-02-26T12:51:35.422Z,9.89
2019-02-26T12:52:34.162Z,8.69
2019-02-26T12:53:35.729Z,8.19
2019-02-26T12:54:37.200Z,9.10
2019-02-26T12:55:35.824Z,10.19
2019-02-26T12:56:37.333Z,9.80
2019-02-26T12:57:34.037Z,9.10
2019-02-26T12:58:34.025Z,9.39
2019-02-26T12:59:34.046Z,10.39
2019-02-26T13:00:34.987Z,8.19
2019-02-26T13:01:36.259Z,8.19
2019-02-26T13:02:36.330Z,8.39
2019-02-26T13:03:38.117Z,9.00
2019-02-26T13:04:33.959Z,8.00
2019-02-26T13:05:36.291Z,8.00
2019-02-26T13:06:35.089Z,8.39
2019-02-26T13:07:33.925Z,7.80
2019-02-26T13:08:36.053Z,7.80
2019-02-26T13:09:34.006Z,8.80
2019-02-26T13:10:33.899Z,9.19
2019-02-26T13:11:33.884Z,9.00
2019-02-26T13:12:33.873Z,7.90
2019-02-26T13:13:33.865Z,8.
2019-02-26T13:14:33.851Z,8.
2019-02-26T13:15:33.841Z,7.
2019-02-26T13:16:34.418Z,8.
2019-02-26T13:17:33.825Z,8.
2019-02-26T13:18:33.811Z,8.
2019-02-26T13:19:36.361Z,9.
2019-02-26T13:20:33.887Z,8.
2019-02-26T13:21:34.074Z,8.
2019-02-26T13:22:33.766Z,8.